createdAt,value
2023-04-27T00:00:10.943Z,1.20
2023-04-27T00:02:56.916Z,1.40
2023-04-27T00:05:42.223Z,1.43
2023-04-27T00:08:27.384Z,1.30
2023-04-27T00:11:12.794Z,1.30
2023-04-27T00:13:58.148Z,1.40
2023-04-27T00:16:43.284Z,1.20
2023-04-27T00:19:28.552Z,1.13
2023-04-27T00:22:14.071Z,1.30
2023-04-27T00:24:59.634Z,1.23
2023-04-27T00:27:44.885Z,1.50
2023-04-27T00:30:30.208Z,1.20
2023-04-27T00:33:16.975Z,1.10
2023-04-27T00:36:02.746Z,1.40
2023-04-27T00:38:48.277Z,1.10
2023-04-27T00:41:37.478Z,1.10
2023-04-27T00:44:26.842Z,1.37
2023-04-27T00:47:12.879Z,1.30
2023-04-27T00:49:59.249Z,1.20
2023-04-27T00:52:44.599Z,1.20
2023-04-27T00:55:29.657Z,1.10
2023-04-27T00:58:15.295Z,1.17
2023-04-27T01:01:01.221Z,1.40
2023-04-27T01:03:47.484Z,1.10
2023-04-27T01:06:32.871Z,1.23
2023-04-27T01:09:20.050Z,1.27
2023-04-27T01:12:08.666Z,1.43
2023-04-27T01:14:54.346Z,1.03
2023-04-27T01:17:39.709Z,1.40
2023-04-27T01:20:25.502Z,1.30
2023-04-27T01:23:16.781Z,1.20
2023-04-27T01:26:02.912Z,1.20
2023-04-27T01:28:48.466Z,1.27
2023-04-27T01:31:34.107Z,1.30
2023-04-27T01:34:19.376Z,1.13
2023-04-27T01:37:06.369Z,1.40
2023-04-27T01:39:51.844Z,1.00
2023-04-27T01:42:37.165Z,1.33
2023-04-27T01:45:22.745Z,1.20
2023-04-27T01:48:08.182Z,1.17
2023-04-27T01:50:53.604Z,1.00
2023-04-27T01:53:38.891Z,1.07
2023-04-27T01:56:24.334Z,1.13
2023-04-27T01:59:09.735Z,1.20
2023-04-27T02:01:55.228Z,1.20
2023-04-27T02:04:43.232Z,1.30
2023-04-27T02:07:28.565Z,1.20
2023-04-27T02:10:14.869Z,1.13
2023-04-27T02:13:00.210Z,1.23
2023-04-27T02:15:45.514Z,1.23
2023-04-27T02:18:32.465Z,1.13
2023-04-27T02:21:17.838Z,1.00
2023-04-27T02:24:03.134Z,1.10
2023-04-27T02:26:48.488Z,0.97
2023-04-27T02:29:33.752Z,1.10
2023-04-27T02:32:19.656Z,1.10
2023-04-27T02:35:05.188Z,1.10
2023-04-27T02:37:50.536Z,1.20
2023-04-27T02:40:36.056Z,1.70
2023-04-27T02:43:25.065Z,1.80
2023-04-27T02:46:10.344Z,1.93
2023-04-27T02:48:56.466Z,1.57
2023-04-27T02:51:42.062Z,1.60
2023-04-27T02:54:27.574Z,1.50
2023-04-27T02:57:13.168Z,1.60
2023-04-27T02:59:58.447Z,1.40
2023-04-27T03:02:43.985Z,1.60
2023-04-27T03:05:31.778Z,2.03
2023-04-27T03:08:16.931Z,1.80
2023-04-27T03:11:02.559Z,2.03
2023-04-27T03:13:48.087Z,2.20
2023-04-27T03:16:33.912Z,2.20
2023-04-27T03:19:19.111Z,2.10
2023-04-27T03:22:04.399Z,2.13
2023-04-27T03:24:49.586Z,2.13
2023-04-27T03:27:35.116Z,2.10
2023-04-27T03:30:20.821Z,1.90
2023-04-27T03:33:06.287Z,2.03
2023-04-27T03:35:56.369Z,2.50
2023-04-27T03:38:41.754Z,1.90
2023-04-27T03:41:26.844Z,2.40
2023-04-27T03:44:12.286Z,2.37
2023-04-27T03:46:57.979Z,2.13
2023-04-27T03:49:43.536Z,2.10
2023-04-27T03:52:30.171Z,2.07
2023-04-27T03:55:15.965Z,2.10
2023-04-27T03:58:01.575Z,2.07
2023-04-27T04:00:47.906Z,1.93
2023-04-27T04:03:33.314Z,1.60
2023-04-27T04:06:18.904Z,2.33
2023-04-27T04:09:04.644Z,2.07
2023-04-27T04:11:52.478Z,2.00
2023-04-27T04:14:38.655Z,1.83
2023-04-27T04:17:24.643Z,2.60
2023-04-27T04:20:10.918Z,1.97
2023-04-27T04:22:56.381Z,1.90
2023-04-27T04:25:43.374Z,1.73
2023-04-27T04:28:29.306Z,1.90
2023-04-27T04:31:17.653Z,2.03
2023-04-27T04:34:03.480Z,1.83
2023-04-27T04:36:51.790Z,2.37
2023-04-27T04:39:38.339Z,1.80
2023-04-27T04:42:23.826Z,1.87
2023-04-27T04:45:10.502Z,1.90
2023-04-27T04:47:55.966Z,1.90
2023-04-27T04:50:42.502Z,2.30
2023-04-27T04:53:27.766Z,2.70
2023-04-27T04:56:14.958Z,3.50
2023-04-27T04:59:06.640Z,2.83
2023-04-27T05:01:55.655Z,3.00
2023-04-27T05:04:45.989Z,2.63
2023-04-27T05:07:31.579Z,2.90
2023-04-27T05:10:16.920Z,2.30
2023-04-27T05:13:02.139Z,2.83
2023-04-27T05:15:47.632Z,2.33
2023-04-27T05:18:34.013Z,2.50
2023-04-27T05:21:22.620Z,2.50
2023-04-27T05:24:07.986Z,2.37
2023-04-27T05:26:53.939Z,2.50
2023-04-27T05:29:39.388Z,2.50
2023-04-27T05:32:24.861Z,3.77
2023-04-27T05:35:10.071Z,3.10
2023-04-27T05:37:55.657Z,2.90
2023-04-27T05:40:41.090Z,2.40
2023-04-27T05:43:26.532Z,2.53
2023-04-27T05:46:15.651Z,2.63
2023-04-27T05:49:01.599Z,3.03
2023-04-27T05:51:47.041Z,3.00
2023-04-27T05:54:32.427Z,2.90
2023-04-27T05:57:17.815Z,2.67
2023-04-27T06:00:08.932Z,2.70
2023-04-27T06:02:58.009Z,2.83
2023-04-27T06:05:43.668Z,3.10
2023-04-27T06:08:29.616Z,2.50
2023-04-27T06:11:15.434Z,2.63
2023-04-27T06:14:00.936Z,2.70
2023-04-27T06:16:46.435Z,2.47
2023-04-27T06:19:31.871Z,2.57
2023-04-27T06:22:17.375Z,2.80
2023-04-27T06:25:03.443Z,2.77
2023-04-27T06:27:48.721Z,2.70
2023-04-27T06:30:34.372Z,2.47
2023-04-27T06:33:19.905Z,2.43
2023-04-27T06:36:05.447Z,2.50
2023-04-27T06:38:55.662Z,2.90
2023-04-27T06:41:41.384Z,2.67
2023-04-27T06:44:37.643Z,2.43
2023-04-27T06:47:23.077Z,2.53
2023-04-27T06:50:08.910Z,2.40
2023-04-27T06:52:54.669Z,2.50
2023-04-27T06:55:43.077Z,2.30
2023-04-27T06:58:29.403Z,2.30
2023-04-27T07:01:14.841Z,2.30
2023-04-27T07:04:00.255Z,2.27
2023-04-27T07:06:45.602Z,2.07
2023-04-27T07:09:31.135Z,2.07
2023-04-27T07:12:16.719Z,2.50
2023-04-27T07:15:04.357Z,2.40
2023-04-27T07:17:51.994Z,2.07
2023-04-27T07:20:37.998Z,2.20
2023-04-27T07:23:23.810Z,2.33
2023-04-27T07:26:09.824Z,1.93
2023-04-27T07:28:56.716Z,2.40
2023-04-27T07:31:42.383Z,2.03
2023-04-27T07:34:35.068Z,2.00
2023-04-27T07:37:27.211Z,2.00
2023-04-27T07:40:18.799Z,2.07
2023-04-27T07:43:04.213Z,2.00
2023-04-27T07:45:49.674Z,2.07
2023-04-27T07:48:35.197Z,2.00
2023-04-27T07:51:21.513Z,2.00
2023-04-27T07:54:07.806Z,2.17
2023-04-27T07:56:54.007Z,2.00
2023-04-27T07:59:40.106Z,1.80
2023-04-27T08:02:30.565Z,2.20
2023-04-27T08:05:16.568Z,2.17
2023-04-27T08:08:02.375Z,1.97
2023-04-27T08:10:48.142Z,1.90
2023-04-27T08:13:35.107Z,2.40
2023-04-27T08:16:20.417Z,2.20
2023-04-27T08:19:05.902Z,1.87
2023-04-27T08:21:51.374Z,1.80
2023-04-27T08:24:37.497Z,2.30
2023-04-27T08:27:22.964Z,1.77
2023-04-27T08:30:08.894Z,1.77
2023-04-27T08:32:55.724Z,2.00
2023-04-27T08:35:41.715Z,1.73
2023-04-27T08:38:26.988Z,1.70
2023-04-27T08:41:22.494Z,2.03
2023-04-27T08:44:08.524Z,1.80
2023-04-27T08:46:53.890Z,1.70
2023-04-27T08:49:41.598Z,1.90
2023-04-27T08:52:28.104Z,1.63
2023-04-27T08:55:15.845Z,1.80
2023-04-27T08:58:01.969Z,1.90
2023-04-27T09:00:49.394Z,1.70
2023-04-27T09:03:37.103Z,1.70
2023-04-27T09:06:33.333Z,1.80
2023-04-27T09:09:23.745Z,1.70
2023-04-27T09:12:16.089Z,1.73
2023-04-27T09:15:05.250Z,1.58
2023-04-27T09:17:56.231Z,1.83
2023-04-27T09:20:45.178Z,1.73
2023-04-27T09:23:36.033Z,1.70
2023-04-27T09:26:27.181Z,1.70
2023-04-27T09:29:13.060Z,1.93
2023-04-27T09:31:58.469Z,1.90
2023-04-27T09:34:46.099Z,1.70
2023-04-27T09:37:33.181Z,1.70
2023-04-27T09:40:26.507Z,1.53
2023-04-27T09:43:14.022Z,1.77
2023-04-27T09:45:59.665Z,1.70
2023-04-27T09:48:45.123Z,1.80
2023-04-27T09:51:31.864Z,2.00
2023-04-27T09:54:17.725Z,1.70
2023-04-27T09:57:15.505Z,1.70
2023-04-27T10:00:22.000Z,1.60
2023-04-27T10:03:29.276Z,1.77
2023-04-27T10:06:58.890Z,1.57
2023-04-27T10:09:49.293Z,2.13
2023-04-27T10:12:37.526Z,1.90
2023-04-27T10:15:30.237Z,1.67
2023-04-27T10:18:27.247Z,1.67
2023-04-27T10:21:13.751Z,1.77
2023-04-27T10:24:09.098Z,1.40
2023-04-27T10:27:03.315Z,1.50
2023-04-27T10:29:50.040Z,2.07
2023-04-27T10:32:35.757Z,1.80
2023-04-27T10:35:22.986Z,1.67
2023-04-27T10:38:17.269Z,1.43
2023-04-27T10:41:05.403Z,1.53
2023-04-27T10:43:51.390Z,1.40
2023-04-27T10:46:37.466Z,1.53
2023-04-27T10:49:23.578Z,1.70
2023-04-27T10:52:09.204Z,1.50
2023-04-27T10:54:54.943Z,1.53
2023-04-27T10:58:06.728Z,1.57
2023-04-27T11:00:52.681Z,1.63
2023-04-27T11:03:39.002Z,1.47
2023-04-27T11:06:25.106Z,1.50
2023-04-27T11:09:11.203Z,1.13
2023-04-27T11:11:56.815Z,1.70
2023-04-27T11:14:42.250Z,1.40
2023-04-27T11:17:32.292Z,1.60
2023-04-27T11:20:25.507Z,1.50
2023-04-27T11:23:11.255Z,1.27
2023-04-27T11:25:57.068Z,1.80
2023-04-27T11:29:02.938Z,1.63
2023-04-27T11:31:51.445Z,1.40
2023-04-27T11:34:38.910Z,2.00
2023-04-27T11:37:27.994Z,1.43
2023-04-27T11:40:14.383Z,1.70
2023-04-27T11:43:03.408Z,1.73
2023-04-27T11:45:48.948Z,1.57
2023-04-27T11:48:39.480Z,1.70
2023-04-27T11:51:25.268Z,1.90
2023-04-27T11:54:11.236Z,1.77
2023-04-27T11:57:05.997Z,1.90
2023-04-27T11:59:52.001Z,1.87
2023-04-27T12:02:38.776Z,1.53
2023-04-27T12:05:30.207Z,2.03
2023-04-27T12:08:17.776Z,1.90
2023-04-27T12:11:02.991Z,1.57
2023-04-27T12:13:48.644Z,1.70
2023-04-27T12:16:34.207Z,1.60
2023-04-27T12:19:19.425Z,1.50
2023-04-27T12:22:05.203Z,1.90
2023-04-27T12:24:51.405Z,1.63
2023-04-27T12:27:36.592Z,1.43
2023-04-27T12:30:24.173Z,1.87
2023-04-27T12:33:11.115Z,1.50
2023-04-27T12:35:56.940Z,3.00
2023-04-27T12:39:13.350Z,2.23
2023-04-27T12:41:58.910Z,2.13
2023-04-27T12:44:44.874Z,2.07
2023-04-27T12:47:49.643Z,2.07
2023-04-27T12:50:38.101Z,2.27
2023-04-27T12:53:23.588Z,2.20
2023-04-27T12:56:09.459Z,3.57
2023-04-27T12:58:55.251Z,3.23
2023-04-27T13:01:40.801Z,3.73
2023-04-27T13:04:26.052Z,3.90
2023-04-27T13:07:15.542Z,4.07
2023-04-27T13:10:04.612Z,4.10
2023-04-27T13:12:50.472Z,4.07
2023-04-27T13:15:37.194Z,3.80
2023-04-27T13:18:22.970Z,3.67
2023-04-27T13:21:09.159Z,3.80
2023-04-27T13:23:55.169Z,3.60
2023-04-27T13:26:40.948Z,4.47
2023-04-27T13:29:26.386Z,3.60
2023-04-27T13:32:12.318Z,3.80
2023-04-27T13:34:58.927Z,3.67
2023-04-27T13:37:44.991Z,4.00
2023-04-27T13:40:30.753Z,4.00
2023-04-27T13:43:17.364Z,4.03
2023-04-27T13:46:03.269Z,3.63
2023-04-27T13:48:48.918Z,3.80
2023-04-27T13:51:35.969Z,3.50
2023-04-27T13:54:21.997Z,3.70
2023-04-27T14:00:09.023Z,3.90
2023-04-27T14:02:54.558Z,4.10
2023-04-27T14:05:40.222Z,3.87
2023-04-27T14:08:25.626Z,4.43
2023-04-27T14:11:14.434Z,3.57
2023-04-27T14:14:00.174Z,3.60
2023-04-27T14:16:46.435Z,4.03
2023-04-27T14:19:32.927Z,4.07
2023-04-27T14:22:19.249Z,3.03
2023-04-27T14:25:05.211Z,3.00
2023-04-27T14:27:51.004Z,3.10
2023-04-27T14:30:36.789Z,2.53
2023-04-27T14:33:22.685Z,3.87
2023-04-27T14:36:08.767Z,2.97
2023-04-27T14:38:54.248Z,2.50
2023-04-27T14:41:39.703Z,2.50
2023-04-27T14:44:24.908Z,2.70
2023-04-27T14:47:10.395Z,2.77
2023-04-27T14:49:55.749Z,2.37
2023-04-27T14:52:41.169Z,2.70
2023-04-27T14:55:27.213Z,2.60
2023-04-27T14:58:13.182Z,2.27
2023-04-27T15:01:00.856Z,2.57
2023-04-27T15:03:46.820Z,2.33
2023-04-27T15:06:33.442Z,2.23
2023-04-27T15:09:18.956Z,2.63
2023-04-27T15:12:07.474Z,2.60
2023-04-27T15:14:54.338Z,2.40
2023-04-27T15:17:39.934Z,2.13
2023-04-27T15:20:25.311Z,2.60
2023-04-27T15:23:10.997Z,3.13
2023-04-27T15:25:58.617Z,2.53
2023-04-27T15:28:44.489Z,3.30
2023-04-27T15:31:29.825Z,2.70
2023-04-27T15:34:15.199Z,2.40
2023-04-27T15:37:00.461Z,2.93
2023-04-27T15:39:46.572Z,2.60
2023-04-27T15:42:32.151Z,2.73
2023-04-27T15:45:18.169Z,3.20
2023-04-27T15:48:03.829Z,3.17
2023-04-27T15:50:49.453Z,3.27
2023-04-27T15:53:35.206Z,3.03
2023-04-27T15:56:21.309Z,3.20
2023-04-27T15:59:08.070Z,3.60
2023-04-27T16:01:53.599Z,3.60
2023-04-27T16:04:39.067Z,3.33
2023-04-27T16:07:24.467Z,3.40
2023-04-27T16:10:10.199Z,4.07
2023-04-27T16:12:56.213Z,3.80
2023-04-27T16:15:41.822Z,3.40
2023-04-27T16:18:27.264Z,3.03
2023-04-27T16:21:12.605Z,2.97
2023-04-27T16:23:58.302Z,3.37
2023-04-27T16:26:43.945Z,3.40
2023-04-27T16:29:29.467Z,3.40
2023-04-27T16:32:15.740Z,2.80
2023-04-27T16:35:01.049Z,2.87
2023-04-27T16:37:46.382Z,2.90
2023-04-27T16:40:34.856Z,2.70
2023-04-27T16:43:20.161Z,3.43
2023-04-27T16:46:08.331Z,2.83
2023-04-27T16:48:53.970Z,3.10
2023-04-27T16:51:39.674Z,3.00
2023-04-27T16:54:25.560Z,4.10
2023-04-27T16:57:13.176Z,4.80
2023-04-27T16:59:58.800Z,4.53
2023-04-27T17:02:44.331Z,4.30
2023-04-27T17:05:29.742Z,4.20
2023-04-27T17:08:14.950Z,4.13
2023-04-27T17:11:00.705Z,3.90
2023-04-27T17:13:46.981Z,4.40
2023-04-27T17:16:32.595Z,4.30
2023-04-27T17:19:17.853Z,4.20
2023-04-27T17:22:04.238Z,3.90
2023-04-27T17:24:49.422Z,3.90
2023-04-27T17:27:34.876Z,3.97
2023-04-27T17:30:20.344Z,4.20
2023-04-27T17:33:05.994Z,4.30
2023-04-27T17:35:51.420Z,3.60
2023-04-27T17:38:37.167Z,3.70
2023-04-27T17:41:22.333Z,3.63
2023-04-27T17:44:07.517Z,3.47
2023-04-27T17:46:52.984Z,3.73
2023-04-27T17:49:38.265Z,3.90
2023-04-27T17:52:23.492Z,4.10
2023-04-27T17:55:08.882Z,4.17
2023-04-27T17:57:54.113Z,3.50
2023-04-27T18:00:41.525Z,3.67
2023-04-27T18:03:27.303Z,3.97
2023-04-27T18:06:12.920Z,4.27
2023-04-27T18:08:58.315Z,4.10
2023-04-27T18:11:43.561Z,4.17
2023-04-27T18:14:29.081Z,4.60
2023-04-27T18:17:14.627Z,3.70
2023-04-27T18:20:08.094Z,3.97
2023-04-27T18:22:54.605Z,3.93
2023-04-27T18:25:40.043Z,3.60
2023-04-27T18:28:25.643Z,3.93
2023-04-27T18:31:15.267Z,3.50
2023-04-27T18:34:00.986Z,3.17
2023-04-27T18:36:52.688Z,3.33
2023-04-27T18:39:39.008Z,3.13
2023-04-27T18:42:24.963Z,3.00
2023-04-27T18:45:11.461Z,2.90
2023-04-27T18:47:57.442Z,3.00
2023-04-27T18:50:45.075Z,2.93
2023-04-27T18:53:31.200Z,2.70
2023-04-27T18:56:16.601Z,2.50
2023-04-27T18:59:02.200Z,3.00
2023-04-27T19:01:48.576Z,2.80
2023-04-27T19:04:34.956Z,2.87
2023-04-27T19:07:32.074Z,2.70
2023-04-27T19:10:19.505Z,2.77
2023-04-27T19:13:05.341Z,2.60
2023-04-27T19:15:51.527Z,2.77
2023-04-27T19:18:37.358Z,2.53
2023-04-27T19:21:23.098Z,2.80
2023-04-27T19:24:08.896Z,2.53
2023-04-27T19:26:54.491Z,3.03
2023-04-27T19:29:54.112Z,3.30
2023-04-27T19:32:39.851Z,2.80
2023-04-27T19:35:26.763Z,2.97
2023-04-27T19:38:13.623Z,2.80
2023-04-27T19:40:59.262Z,2.80
2023-04-27T19:43:45.069Z,2.87
2023-04-27T19:46:31.084Z,2.50
2023-04-27T19:49:16.350Z,2.60
2023-04-27T19:52:01.989Z,2.50
2023-04-27T19:54:54.206Z,2.57
2023-04-27T19:57:39.679Z,2.87
2023-04-27T20:00:24.979Z,2.60
2023-04-27T20:03:12.713Z,2.50
2023-04-27T20:08:43.602Z,2.57
2023-04-27T20:11:28.851Z,2.70
2023-04-27T20:14:14.539Z,2.90
2023-04-27T20:17:00.599Z,2.33
2023-04-27T20:19:46.087Z,2.90
2023-04-27T20:22:31.725Z,2.70
2023-04-27T20:25:17.022Z,2.20
2023-04-27T20:28:02.479Z,2.50
2023-04-27T20:30:47.759Z,2.60
2023-04-27T20:33:33.125Z,2.60
2023-04-27T20:36:18.897Z,2.50
2023-04-27T20:39:05.502Z,2.60
2023-04-27T20:41:51.031Z,2.93
2023-04-27T20:44:36.922Z,2.77
2023-04-27T20:47:22.566Z,2.90
2023-04-27T20:50:08.125Z,2.57
2023-04-27T20:52:53.769Z,2.57
2023-04-27T20:55:39.376Z,2.43
2023-04-27T20:58:24.988Z,2.47
2023-04-27T21:01:10.203Z,2.60
2023-04-27T21:03:55.577Z,2.30
2023-04-27T21:06:41.731Z,2.43
2023-04-27T21:09:27.435Z,2.40
2023-04-27T21:12:14.744Z,2.60
2023-04-27T21:15:01.081Z,2.67
2023-04-27T21:17:46.687Z,2.43
2023-04-27T21:20:33.212Z,2.57
2023-04-27T21:23:19.299Z,2.47
2023-04-27T21:26:05.078Z,2.50
2023-04-27T21:28:51.481Z,2.37
2023-04-27T21:31:37.262Z,2.60
2023-04-27T21:34:22.880Z,2.23
2023-04-27T21:37:08.159Z,2.27
2023-04-27T21:39:53.417Z,2.43
2023-04-27T21:42:38.853Z,2.30
2023-04-27T21:45:24.198Z,2.37
2023-04-27T21:48:10.767Z,2.70
2023-04-27T21:50:56.187Z,2.47
2023-04-27T21:53:41.391Z,2.57
2023-04-27T21:56:26.493Z,2.23
2023-04-27T21:59:11.741Z,2.40
2023-04-27T22:01:59.188Z,2.60
2023-04-27T22:04:45.453Z,2.30
2023-04-27T22:07:32.519Z,2.50
2023-04-27T22:10:18.154Z,2.13
2023-04-27T22:13:15.091Z,2.03
2023-04-27T22:16:03.929Z,2.10
2023-04-27T22:18:49.018Z,2.30
2023-04-27T22:21:34.356Z,2.50
2023-04-27T22:24:19.656Z,2.17
2023-04-27T22:27:04.913Z,2.13
2023-04-27T22:29:50.224Z,2.17
2023-04-27T22:32:35.484Z,2.33
2023-04-27T22:35:26.594Z,1.80
2023-04-27T22:38:13.429Z,2.50
2023-04-27T22:40:58.631Z,2.10
2023-04-27T22:43:43.832Z,2.23
2023-04-27T22:46:29.331Z,2.20
2023-04-27T22:49:15.113Z,2.00
2023-04-27T22:52:00.696Z,2.00
2023-04-27T22:54:46.174Z,2.10
2023-04-27T22:57:31.497Z,2.00
2023-04-27T23:00:17.336Z,2.20
2023-04-27T23:03:02.675Z,2.27
2023-04-27T23:05:48.384Z,1.73
2023-04-27T23:08:33.761Z,2.20
2023-04-27T23:11:19.395Z,1.90
2023-04-27T23:14:04.643Z,1.93
2023-04-27T23:16:49.942Z,1.80
2023-04-27T23:19:35.214Z,2.20
2023-04-27T23:22:20.426Z,1.80
2023-04-27T23:25:07.097Z,2.10
2023-04-27T23:27:53.121Z,2.00
2023-04-27T23:30:38.516Z,2.10
2023-04-27T23:33:24.414Z,1.97
2023-04-27T23:36:09.304Z,1.97
2023-04-27T23:38:54.670Z,1.90
2023-04-27T23:41:39.928Z,1.90
2023-04-27T23:44:25.912Z,2.10
2023-04-27T23:47:11.983Z,1.97
2023-04-27T23:49:57.849Z,2.13
2023-04-27T23:52:43.410Z,2.03
2023-04-27T23:55:28.993Z,2.17
2023-04-27T23:58:14.163Z,2.10
